Time;durP1;ratioP1;P1;durP2;ratioP2;P2;SDS_P1;SDS_P2;PMS_P1;PMS_P2;Temp;Humidity;BMP_temperature;BMP_pressure;BME280_temperature;BME280_humidity;BME280_pressure;Samples;Min_cycle;Max_cycle;Signal;HPM_P1;HPM_P2
2023/01/27 00:00:37;;;;;;;;;1.00;1.00;;;;;5.78;78.76;102606.19;5047590;28;10861;-66
2023/01/27 00:03:03;;;;;;;;;0.00;0.00;;;;;5.73;79.43;102603.03;5044070;28;10851;-66
2023/01/27 00:05:30;;;;;;;;;0.00;0.00;;;;;5.73;79.43;102605.69;5047012;28;10882;-66
2023/01/27 00:07:57;;;;;;;;;2.00;0.00;;;;;5.72;78.72;102606.69;5045625;28;10802;-67
2023/01/27 00:10:24;;;;;;;;;0.75;0.75;;;;;5.71;79.03;102602.28;5051325;28;10933;-65
2023/01/27 00:15:35;;;;;;;;;1.00;1.00;;;;;5.68;79.62;102599.88;5046193;28;10968;-64
2023/01/27 00:18:02;;;;;;;;;0.00;0.00;;;;;5.69;79.27;102606.91;5048300;28;10867;-66
2023/01/27 00:26:10;;;;;;;;;0.75;0.00;;;;;5.58;78.87;102604.22;5044233;28;10889;-66
2023/01/27 00:28:40;;;;;;;;;2.50;0.00;;;;;5.58;79.40;102614.88;5049770;28;10726;-66
2023/01/27 00:34:00;;;;;;;;;1.75;0.00;;;;;5.50;78.77;102612.81;5046314;28;11510;-66
2023/01/27 00:36:28;;;;;;;;;0.75;0.75;;;;;5.52;79.13;102612.72;5046689;28;10893;-67
2023/01/27 00:38:55;;;;;;;;;3.25;1.25;;;;;5.51;79.10;102613.66;5046166;28;10835;-67
2023/01/27 00:41:22;;;;;;;;;2.00;2.00;;;;;5.45;78.75;102617.66;5044165;28;10872;-65
2023/01/27 00:43:51;;;;;;;;;1.25;1.25;;;;;5.42;78.94;102621.41;5047984;28;10934;-66
2023/01/27 00:46:20;;;;;;;;;2.50;1.75;;;;;5.41;79.29;102618.84;5046675;28;10882;-65
2023/01/27 00:48:47;;;;;;;;;1.25;1.25;;;;;5.38;78.57;102611.91;5049167;28;10813;-66
2023/01/27 00:51:13;;;;;;;;;1.00;1.00;;;;;5.34;79.07;102618.47;5045268;28;10776;-65
2023/01/27 00:53:40;;;;;;;;;4.25;4.00;;;;;5.27;78.84;102622.59;5061692;28;10932;-64
2023/01/27 00:56:07;;;;;;;;;4.50;2.00;;;;;5.29;78.29;102627.81;5049209;28;11269;-64
2023/01/27 00:58:34;;;;;;;;;2.00;2.00;;;;;5.28;79.08;102624.28;5042867;28;10994;-66
2023/01/27 01:01:03;;;;;;;;;3.00;2.00;;;;;5.33;78.50;102624.78;5063268;28;10968;-67
2023/01/27 01:03:32;;;;;;;;;5.25;3.00;;;;;5.33;77.70;102630.13;5047821;28;11659;-66
2023/01/27 01:06:00;;;;;;;;;4.25;2.00;;;;;5.27;77.84;102635.09;5032310;28;11683;-67
2023/01/27 01:08:29;;;;;;;;;4.25;1.25;;;;;5.23;78.24;102620.28;5031341;28;10961;-65
2023/01/27 01:10:56;;;;;;;;;1.25;1.25;;;;;5.23;77.88;102623.78;5032337;28;10933;-65
2023/01/27 01:13:23;;;;;;;;;2.50;1.75;;;;;5.25;77.37;102629.84;5031199;28;11037;-65
2023/01/27 01:15:50;;;;;;;;;1.00;1.00;;;;;5.25;78.56;102632.50;5047388;28;11018;-66
2023/01/27 01:18:16;;;;;;;;;1.75;1.75;;;;;5.27;77.91;102630.59;5035400;28;10975;-66
2023/01/27 01:20:44;;;;;;;;;2.50;2.50;;;;;5.25;77.75;102643.19;5029664;28;11145;-66
2023/01/27 01:23:12;;;;;;;;;2.00;2.00;;;;;5.25;78.53;102637.84;5045526;28;11135;-65
2023/01/27 01:25:38;;;;;;;;;5.00;4.00;;;;;5.26;77.97;102644.88;5029278;28;11116;-65
2023/01/27 01:28:06;;;;;;;;;6.00;2.00;;;;;5.28;77.37;102628.78;5030598;28;11052;-65
2023/01/27 01:30:34;;;;;;;;;2.25;1.75;;;;;5.28;78.10;102634.13;5031803;28;11042;-66
2023/01/27 01:33:01;;;;;;;;;4.00;3.00;;;;;5.19;77.26;102630.31;5030549;28;11203;-65
2023/01/27 01:35:28;;;;;;;;;2.00;2.00;;;;;5.19;77.78;102635.66;5036238;28;11845;-66
2023/01/27 01:37:55;;;;;;;;;3.00;3.00;;;;;5.16;77.40;102633.22;5049987;28;11013;-66
2023/01/27 01:40:21;;;;;;;;;4.75;4.75;;;;;5.19;77.64;102641.84;5049866;28;11101;-66
2023/01/27 01:42:57;;;;;;;;;4.00;4.00;;;;;5.22;77.31;102640.75;5049146;28;11139;-66
2023/01/27 01:45:35;;;;;;;;;2.00;2.00;;;;;5.17;76.52;102634.91;5032812;28;11227;-65
2023/01/27 01:48:13;;;;;;;;;4.75;4.75;;;;;5.12;76.54;102637.94;5038457;28;11027;-67
2023/01/27 01:50:44;;;;;;;;;8.00;5.00;;;;;5.09;76.89;102639.97;5029316;28;11189;-66
2023/01/27 01:53:11;;;;;;;;;9.50;8.00;;;;;5.02;77.32;102634.22;5036736;28;11104;-67
2023/01/27 01:55:39;;;;;;;;;9.00;5.50;;;;;5.05;77.30;102650.03;5047969;28;11461;-66
2023/01/27 01:58:09;;;;;;;;;5.25;5.00;;;;;5.09;77.36;102648.81;5049158;28;11423;-66
2023/01/27 02:00:35;;;;;;;;;6.75;5.50;;;;;5.13;78.11;102654.78;5050356;28;11660;-65
2023/01/27 02:03:02;;;;;;;;;12.75;8.00;;;;;5.08;76.64;102654.28;5029779;28;11549;-65
2023/01/27 02:05:34;;;;;;;;;8.00;7.75;;;;;5.03;76.39;102659.97;5033079;28;11451;-67
2023/01/27 02:08:10;;;;;;;;;7.25;6.00;;;;;4.97;77.74;102653.25;5053298;28;11433;-65
2023/01/27 02:10:37;;;;;;;;;13.00;8.50;;;;;4.95;77.18;102659.69;5048215;28;11447;-65
2023/01/27 02:13:03;;;;;;;;;8.75;8.75;;;;;4.93;77.13;102648.25;5052129;28;11442;-65
2023/01/27 02:15:31;;;;;;;;;17.25;15.50;;;;;4.87;77.30;102660.25;5032853;28;11430;-64
2023/01/27 02:17:59;;;;;;;;;10.75;9.00;;;;;4.85;77.79;102656.81;5034062;28;11498;-65
2023/01/27 02:20:45;;;;;;;;;8.75;7.75;;;;;4.89;77.85;102666.31;5054106;28;11419;-65
2023/01/27 02:23:54;;;;;;;;;9.00;6.50;;;;;4.88;77.56;102669.09;5049847;28;11437;-65
2023/01/27 02:26:28;;;;;;;;;9.50;6.50;;;;;4.84;77.90;102663.13;5051010;28;11543;-64
2023/01/27 02:28:58;;;;;;;;;7.50;5.25;;;;;4.80;77.88;102669.66;5033228;28;11550;-65
2023/01/27 02:31:25;;;;;;;;;16.75;15.00;;;;;4.72;77.23;102672.88;5033945;28;11423;-66
2023/01/27 02:33:58;;;;;;;;;13.25;12.00;;;;;4.70;77.65;102663.31;5033685;28;11557;-66
2023/01/27 02:36:28;;;;;;;;;13.50;11.00;;;;;4.75;77.86;102673.63;5035452;28;11457;-67
2023/01/27 02:38:58;;;;;;;;;12.25;11.00;;;;;4.75;77.49;102670.97;5048486;28;12158;-65
2023/01/27 02:41:34;;;;;;;;;8.75;8.75;;;;;4.74;77.22;102671.91;5050968;28;11436;-65
2023/01/27 02:44:01;;;;;;;;;11.50;9.75;;;;;4.70;77.42;102674.81;5051538;28;11453;-66
2023/01/27 02:46:27;;;;;;;;;11.00;10.00;;;;;4.70;77.53;102679.31;5052063;28;11515;-65
2023/01/27 02:48:54;;;;;;;;;15.00;12.25;;;;;4.74;78.06;102679.91;5052031;28;11453;-67
2023/01/27 02:51:21;;;;;;;;;16.75;13.50;;;;;4.70;78.07;102679.31;5052309;28;11451;-65
2023/01/27 02:53:48;;;;;;;;;13.00;10.00;;;;;4.64;78.10;102679.72;5043353;28;11489;-65
2023/01/27 02:56:14;;;;;;;;;10.00;9.00;;;;;4.61;78.58;102679.94;5044898;28;11447;-67
2023/01/27 02:58:42;;;;;;;;;12.50;9.00;;;;;4.64;78.59;102675.25;5037097;28;11419;-65
2023/01/27 03:01:17;;;;;;;;;9.75;9.75;;;;;4.65;78.77;102682.28;5032136;28;11509;-66
2023/01/27 03:03:45;;;;;;;;;11.25;10.00;;;;;4.62;78.32;102687.84;5033323;28;11519;-66
2023/01/27 03:06:16;;;;;;;;;10.25;8.75;;;;;4.55;78.56;102685.72;5031649;28;12229;-66
2023/01/27 03:08:43;;;;;;;;;9.75;7.75;;;;;4.55;79.84;102693.75;5048203;28;11419;-67
2023/01/27 03:11:11;;;;;;;;;10.75;8.00;;;;;4.49;78.36;102689.66;5038182;28;11449;-64
2023/01/27 03:13:38;;;;;;;;;10.00;7.25;;;;;4.46;79.28;102693.44;5033398;28;11440;-68
2023/01/27 03:18:55;;;;;;;;;12.50;11.00;;;;;4.39;79.44;102683.31;5031778;28;11501;-66
2023/01/27 03:21:21;;;;;;;;;11.25;8.75;;;;;4.32;78.91;102687.34;5021159;28;12138;-65
2023/01/27 03:23:48;;;;;;;;;21.50;12.50;;;;;4.33;79.88;102689.91;5047388;28;11430;-66
2023/01/27 03:26:19;;;;;;;;;16.00;10.00;;;;;4.38;80.63;102692.28;5031658;28;11536;-66
2023/01/27 03:29:53;;;;;;;;;11.75;8.25;;;;;4.42;79.95;102696.44;5031514;28;11443;-65
2023/01/27 03:31:40;;;;;;;;;16.50;12.00;;;;;4.38;79.63;102702.94;5034249;28;11414;-65
2023/01/27 03:34:08;;;;;;;;;20.50;14.00;;;;;4.30;78.59;102690.13;5036546;28;11450;-65
2023/01/27 03:47:42;;;;;;;;;13.50;10.75;;;;;4.18;75.84;102704.31;5039621;28;11449;-66
2023/01/27 03:50:09;;;;;;;;;8.75;7.75;;;;;4.16;75.53;102714.22;5046051;28;11555;-65
2023/01/27 03:52:36;;;;;;;;;8.00;8.00;;;;;4.14;75.34;102706.34;5050892;28;11423;-66
2023/01/27 03:55:03;;;;;;;;;8.00;6.75;;;;;4.22;75.31;102713.81;5042014;28;11530;-64
2023/01/27 03:57:30;;;;;;;;;10.00;9.00;;;;;4.27;74.50;102722.34;5044290;28;11439;-65
2023/01/27 03:59:56;;;;;;;;;8.50;8.50;;;;;4.32;74.39;102727.34;5035416;28;11553;-65
2023/01/27 04:07:53;;;;;;;;;15.75;10.00;;;;;4.34;74.89;102726.28;5052217;28;11422;-65
2023/01/27 04:10:19;;;;;;;;;7.75;7.75;;;;;4.33;74.73;102735.22;5041470;28;11473;-65
2023/01/27 04:12:47;;;;;;;;;11.00;9.50;;;;;4.37;74.53;102742.03;5047979;28;11404;-66
2023/01/27 04:15:13;;;;;;;;;9.00;9.00;;;;;4.39;74.67;102734.81;5048409;28;11436;-65
2023/01/27 04:17:44;;;;;;;;;8.75;8.00;;;;;4.34;74.46;102738.78;5050428;28;11445;-64
2023/01/27 04:20:11;;;;;;;;;8.75;8.25;;;;;4.31;74.65;102739.81;5038976;28;11499;-65
2023/01/27 04:22:37;;;;;;;;;12.25;11.00;;;;;4.37;74.66;102743.88;5032438;28;11425;-66
2023/01/27 04:25:04;;;;;;;;;9.00;9.00;;;;;4.32;73.93;102741.53;5044474;28;12244;-65
2023/01/27 04:27:31;;;;;;;;;10.00;8.00;;;;;4.34;74.31;102744.09;5049735;28;11414;-66
2023/01/27 04:29:57;;;;;;;;;8.00;7.00;;;;;4.34;74.08;102742.28;5047394;28;11456;-66
2023/01/27 04:32:25;;;;;;;;;6.00;6.00;;;;;4.40;73.75;102738.31;5051802;28;11419;-65
2023/01/27 04:34:51;;;;;;;;;8.00;7.00;;;;;4.48;73.42;102741.31;5047634;28;11597;-66
2023/01/27 04:37:17;;;;;;;;;5.00;4.25;;;;;4.52;73.67;102740.13;5051242;28;11425;-66
2023/01/27 04:39:44;;;;;;;;;8.00;6.50;;;;;4.55;73.76;102741.75;5040548;28;11496;-66
2023/01/27 04:42:11;;;;;;;;;5.00;5.00;;;;;4.57;73.29;102740.66;5030171;28;11419;-66
2023/01/27 04:44:38;;;;;;;;;8.00;4.00;;;;;4.55;72.88;102741.75;5040523;28;11408;-63
2023/01/27 04:47:04;;;;;;;;;8.00;7.25;;;;;4.51;73.74;102734.91;5036834;28;12125;-66
2023/01/27 04:49:31;;;;;;;;;5.50;5.50;;;;;4.50;74.02;102741.19;5042400;28;11407;-65
2023/01/27 04:51:57;;;;;;;;;10.00;8.00;;;;;4.44;73.56;102745.16;5031072;28;12154;-66
2023/01/27 04:54:24;;;;;;;;;4.25;4.25;;;;;4.45;73.93;102745.03;5038547;28;11480;-66
2023/01/27 04:56:59;;;;;;;;;6.25;6.25;;;;;4.46;73.89;102751.25;5049623;28;11449;-64
2023/01/27 04:59:25;;;;;;;;;4.50;4.50;;;;;4.42;73.66;102752.41;5043162;28;11469;-66
2023/01/27 05:01:52;;;;;;;;;6.50;4.50;;;;;4.42;73.52;102758.59;5041070;28;11422;-65
2023/01/27 05:04:19;;;;;;;;;4.00;4.00;;;;;4.41;72.98;102759.53;5042055;28;11430;-65
2023/01/27 05:06:45;;;;;;;;;9.50;6.00;;;;;4.37;72.93;102755.38;5031087;28;12301;-65
2023/01/27 05:09:11;;;;;;;;;4.00;4.00;;;;;4.41;72.81;102764.03;5036863;28;11961;-65
2023/01/27 05:11:38;;;;;;;;;4.25;3.50;;;;;4.49;72.82;102756.34;5051105;28;11418;-67
2023/01/27 05:14:04;;;;;;;;;2.00;1.75;;;;;4.50;72.21;102760.75;5045674;28;11415;-66
2023/01/27 05:16:31;;;;;;;;;4.00;2.00;;;;;4.42;71.46;102763.94;5041098;22;11186;-68
2023/01/27 05:18:57;;;;;;;;;1.00;1.00;;;;;4.41;71.20;102774.69;5009262;28;11246;-68
2023/01/27 05:21:29;;;;;;;;;3.00;3.00;;;;;4.37;71.17;102771.38;5010762;28;11204;-67
2023/01/27 05:23:56;;;;;;;;;3.00;3.00;;;;;4.33;71.52;102772.53;5010611;28;12475;-68
2023/01/27 05:26:25;;;;;;;;;1.25;1.25;;;;;4.35;70.75;102772.47;4993973;28;11268;-69
2023/01/27 05:28:54;;;;;;;;;2.00;2.00;;;;;4.32;70.81;102765.53;4992036;28;11464;-69
2023/01/27 05:31:24;;;;;;;;;1.25;1.25;;;;;4.37;70.62;102781.19;4991688;28;11469;-68
2023/01/27 05:33:53;;;;;;;;;4.50;4.25;;;;;4.40;70.26;102765.00;4994363;28;11496;-66
2023/01/27 05:36:21;;;;;;;;;1.25;1.25;;;;;4.42;70.82;102771.09;5010328;28;11469;-66
2023/01/27 05:38:48;;;;;;;;;2.50;2.50;;;;;4.46;71.28;102773.44;5007523;28;11455;-67
2023/01/27 05:41:17;;;;;;;;;1.00;1.00;;;;;4.49;71.67;102782.16;4981685;28;11568;-67
2023/01/27 05:43:45;;;;;;;;;3.50;3.50;;;;;4.41;71.85;102788.03;4993015;28;11466;-66
2023/01/27 05:46:14;;;;;;;;;2.00;2.00;;;;;4.44;71.73;102786.00;5010253;28;12209;-67
2023/01/27 05:48:43;;;;;;;;;2.25;1.00;;;;;4.45;71.99;102787.69;4999850;28;11495;-66
2023/01/27 05:51:11;;;;;;;;;4.00;1.75;;;;;4.37;70.74;102798.03;4990552;28;11557;-67
2023/01/27 05:53:41;;;;;;;;;0.75;0.75;;;;;4.36;70.91;102799.00;4992758;28;11324;-67
2023/01/27 05:56:09;;;;;;;;;1.25;1.25;;;;;4.36;69.93;102791.00;5010424;28;11551;-66
2023/01/27 05:58:37;;;;;;;;;2.00;2.00;;;;;4.36;70.06;102800.81;5008013;28;11467;-67
2023/01/27 06:01:18;;;;;;;;;1.00;1.00;;;;;4.39;69.04;102800.63;4995983;28;11444;-69
2023/01/27 06:03:45;;;;;;;;;1.00;1.00;;;;;4.39;68.58;102792.63;4983882;28;11489;-67
2023/01/27 06:06:13;;;;;;;;;1.75;1.00;;;;;4.38;68.80;102789.09;4990562;28;11452;-67
2023/01/27 06:08:39;;;;;;;;;4.00;1.00;;;;;4.40;69.27;102786.31;4990828;28;11442;-66
2023/01/27 06:11:06;;;;;;;;;1.00;1.00;;;;;4.44;69.90;102795.81;4970148;28;11456;-67
2023/01/27 06:13:34;;;;;;;;;0.25;0.00;;;;;4.42;70.97;102793.25;4973136;28;11446;-67
2023/01/27 06:16:02;;;;;;;;;1.75;1.00;;;;;4.38;70.60;102794.44;5010009;28;11421;-68
2023/01/27 06:18:29;;;;;;;;;1.00;1.00;;;;;4.36;71.61;102795.50;4985003;28;11555;-66
2023/01/27 06:21:00;;;;;;;;;1.25;1.00;;;;;4.33;71.40;102791.22;4991078;28;11449;-67
2023/01/27 06:23:27;;;;;;;;;1.00;1.00;;;;;4.27;70.68;102802.31;4990528;28;11573;-66
2023/01/27 06:25:54;;;;;;;;;0.00;0.00;;;;;4.19;70.08;102809.97;4971161;28;11548;-67
2023/01/27 06:28:21;;;;;;;;;1.00;1.00;;;;;4.13;69.26;102813.03;4954094;28;11531;-67
2023/01/27 06:30:55;;;;;;;;;0.25;0.25;;;;;4.08;69.15;102818.69;4972826;28;11444;-67
2023/01/27 06:33:22;;;;;;;;;1.00;1.00;;;;;4.04;67.42;102817.19;4986865;28;11464;-65
2023/01/27 06:35:49;;;;;;;;;0.50;0.50;;;;;4.00;67.96;102810.34;4979258;28;11567;-66
2023/01/27 06:38:15;;;;;;;;;1.00;1.00;;;;;4.02;67.33;102802.28;4986092;28;11535;-66
2023/01/27 06:40:42;;;;;;;;;1.00;1.00;;;;;4.04;67.23;102811.00;5010542;28;11425;-66
2023/01/27 06:43:13;;;;;;;;;1.00;1.00;;;;;4.03;67.25;102803.97;5011056;28;11435;-66
2023/01/27 06:45:40;;;;;;;;;1.50;1.00;;;;;4.09;67.78;102804.44;4995131;28;11457;-66
2023/01/27 06:48:07;;;;;;;;;1.00;1.00;;;;;4.12;67.97;102796.19;5010263;28;11493;-67
2023/01/27 06:50:35;;;;;;;;;0.00;0.00;;;;;4.16;68.25;102799.53;4988424;28;12236;-66
2023/01/27 06:53:05;;;;;;;;;1.00;1.00;;;;;4.26;68.26;102799.75;4991852;28;11487;-68
2023/01/27 06:55:33;;;;;;;;;1.00;1.00;;;;;4.28;68.47;102798.69;5007153;28;11408;-68
2023/01/27 06:58:00;;;;;;;;;1.00;0.00;;;;;4.29;68.26;102807.53;4996474;28;11574;-68
2023/01/27 07:00:27;;;;;;;;;1.00;1.00;;;;;4.22;68.80;102810.63;5008736;28;11208;-68
2023/01/27 07:02:55;;;;;;;;;0.00;0.00;;;;;4.27;69.08;102810.31;5002135;28;11557;-68
2023/01/27 07:05:21;;;;;;;;;2.00;0.00;;;;;4.23;69.30;102800.81;4978075;28;11540;-68
2023/01/27 07:07:47;;;;;;;;;1.00;1.00;;;;;4.27;69.47;102802.31;4995189;28;11474;-68
2023/01/27 07:10:14;;;;;;;;;3.00;0.75;;;;;4.27;69.80;102809.47;4992609;28;11459;-68
2023/01/27 07:12:41;;;;;;;;;0.00;0.00;;;;;4.30;70.37;102815.44;4993448;28;11579;-68
2023/01/27 07:15:09;;;;;;;;;1.00;1.00;;;;;4.35;70.50;102815.97;5004723;28;11424;-67
2023/01/27 07:17:36;;;;;;;;;1.00;1.00;;;;;4.39;71.09;102822.81;5012081;28;11499;-66
2023/01/27 07:20:03;;;;;;;;;2.00;1.00;;;;;4.41;71.36;102833.34;4999992;28;11863;-67
2023/01/27 07:22:30;;;;;;;;;0.50;0.50;;;;;4.40;71.80;102843.16;4992184;28;11446;-66
2023/01/27 07:24:56;;;;;;;;;1.00;1.00;;;;;4.38;71.61;102842.44;4981858;28;11517;-66
2023/01/27 07:27:24;;;;;;;;;1.50;0.25;;;;;4.32;71.47;102842.84;4973890;28;11962;-67
2023/01/27 07:29:50;;;;;;;;;1.00;1.00;;;;;4.28;70.93;102840.47;4985690;28;11513;-66
2023/01/27 07:32:17;;;;;;;;;1.50;1.00;;;;;4.18;71.21;102848.25;4992056;28;11569;-67
2023/01/27 07:34:43;;;;;;;;;0.00;0.00;;;;;4.10;70.19;102842.59;4994231;28;11548;-67
2023/01/27 07:37:10;;;;;;;;;0.25;0.25;;;;;4.10;70.05;102855.91;4978073;28;11466;-66
2023/01/27 07:39:37;;;;;;;;;0.00;0.00;;;;;4.02;69.84;102853.75;4982331;28;11464;-66
2023/01/27 07:42:04;;;;;;;;;0.00;0.00;;;;;3.97;69.68;102853.22;4973615;28;12241;-67
2023/01/27 07:44:31;;;;;;;;;1.00;1.00;;;;;3.96;69.69;102863.00;4982091;28;11457;-67
2023/01/27 07:46:58;;;;;;;;;0.25;0.25;;;;;3.91;69.47;102857.13;4989467;28;11460;-66
2023/01/27 07:49:25;;;;;;;;;1.00;0.00;;;;;3.94;69.62;102861.41;4984412;28;11442;-67
2023/01/27 07:51:53;;;;;;;;;0.75;0.00;;;;;3.95;69.04;102857.78;4992744;28;11467;-66
2023/01/27 07:54:19;;;;;;;;;0.00;0.00;;;;;3.91;68.25;102864.28;4995726;28;11514;-67
2023/01/27 07:56:45;;;;;;;;;2.00;1.00;;;;;3.87;68.42;102854.75;5005428;28;11521;-67
2023/01/27 07:59:12;;;;;;;;;0.25;0.25;;;;;3.86;68.79;102853.06;4996479;28;11442;-67
2023/01/27 08:01:40;;;;;;;;;1.00;1.00;;;;;3.87;68.54;102857.44;5002579;28;11474;-66
2023/01/27 08:04:07;;;;;;;;;1.00;1.00;;;;;3.87;68.47;102852.94;5006948;28;11442;-67
2023/01/27 08:06:36;;;;;;;;;2.25;2.25;;;;;3.88;68.72;102862.66;5007692;28;11471;-66
2023/01/27 08:09:02;;;;;;;;;0.00;0.00;;;;;3.92;68.17;102861.50;4981650;28;11463;-66
2023/01/27 08:11:29;;;;;;;;;0.00;0.00;;;;;3.94;68.54;102864.91;4992304;28;11442;-66
2023/01/27 08:13:55;;;;;;;;;2.00;0.00;;;;;3.97;68.58;102870.06;4996076;28;11451;-66
2023/01/27 08:16:21;;;;;;;;;0.00;0.00;;;;;3.91;69.09;102865.13;5011477;28;12289;-67
2023/01/27 08:18:48;;;;;;;;;0.25;0.25;;;;;3.92;69.10;102866.81;5003862;28;11632;-68
2023/01/27 08:21:14;;;;;;;;;0.00;0.00;;;;;3.91;68.25;102866.94;5005743;28;11579;-68
2023/01/27 08:23:41;;;;;;;;;0.00;0.00;;;;;3.86;68.25;102869.91;4986405;28;11533;-67
2023/01/27 08:26:07;;;;;;;;;0.00;0.00;;;;;3.91;67.88;102872.25;4988103;28;11494;-66
2023/01/27 08:28:37;;;;;;;;;1.00;1.00;;;;;3.93;68.14;102870.38;4987527;28;11561;-67
2023/01/27 08:31:06;;;;;;;;;1.50;1.00;;;;;3.95;67.79;102877.28;4985918;28;11440;-66
2023/01/27 08:33:33;;;;;;;;;1.00;1.00;;;;;3.95;68.04;102881.75;4987103;28;11661;-67
2023/01/27 08:36:05;;;;;;;;;4.00;1.75;;;;;3.95;67.52;102885.28;4967137;28;11771;-67
2023/01/27 08:38:33;;;;;;;;;1.25;1.25;;;;;3.96;68.09;102878.13;4973338;28;11481;-66
2023/01/27 08:41:15;;;;;;;;;3.00;1.00;;;;;4.03;68.03;102883.91;4972307;28;11528;-66
2023/01/27 08:43:42;;;;;;;;;4.50;4.50;;;;;4.06;68.75;102881.06;4979786;28;11551;-65
2023/01/27 08:46:09;;;;;;;;;3.25;2.50;;;;;4.50;71.79;102887.84;4988428;28;11448;-66
2023/01/27 08:48:36;;;;;;;;;3.50;1.75;;;;;4.50;69.03;102880.75;4985941;28;12521;-67
2023/01/27 08:51:05;;;;;;;;;2.00;2.00;;;;;4.43;68.76;102882.97;4990325;28;11484;-67
2023/01/27 08:53:33;;;;;;;;;7.50;3.00;;;;;4.35;68.75;102881.78;4991932;28;11452;-67
2023/01/27 08:56:06;;;;;;;;;1.00;1.00;;;;;4.32;68.43;102874.81;4990886;28;12239;-67
2023/01/27 08:58:33;;;;;;;;;2.00;1.00;;;;;4.33;68.57;102881.84;4990502;28;11472;-67
2023/01/27 09:01:01;;;;;;;;;2.00;1.00;;;;;4.33;68.09;102881.84;4984903;28;12286;-67
2023/01/27 09:03:29;;;;;;;;;1.50;0.75;;;;;4.24;67.57;102876.31;4991268;28;11439;-67
2023/01/27 09:05:55;;;;;;;;;1.00;1.00;;;;;4.28;68.22;102888.47;4989609;28;11474;-66
2023/01/27 09:08:22;;;;;;;;;2.00;1.00;;;;;4.36;68.31;102884.31;4990443;28;11466;-67
2023/01/27 09:10:49;;;;;;;;;3.00;2.50;;;;;4.46;68.28;102884.56;4985806;28;11447;-66
2023/01/27 09:13:15;;;;;;;;;2.50;1.25;;;;;4.55;67.93;102883.09;4990888;28;11573;-67
2023/01/27 09:15:42;;;;;;;;;3.25;1.50;;;;;4.57;67.86;102883.81;5000873;28;11537;-67
2023/01/27 09:18:09;;;;;;;;;2.00;2.00;;;;;4.60;67.70;102891.63;4990243;28;11703;-67
2023/01/27 09:20:36;;;;;;;;;1.00;1.00;;;;;4.79;70.53;102900.06;4987432;28;11698;-67
2023/01/27 09:23:04;;;;;;;;;0.25;0.00;;;;;4.78;68.07;102903.72;4979242;28;12263;-66
2023/01/27 09:25:31;;;;;;;;;6.00;1.75;;;;;4.71;68.57;102903.28;4997715;28;11196;-66
2023/01/27 09:27:58;;;;;;;;;1.50;1.00;;;;;4.68;67.74;102903.47;4986852;28;11216;-66
2023/01/27 09:30:26;;;;;;;;;2.25;1.00;;;;;4.57;68.54;102905.16;4996666;28;11380;-66
2023/01/27 09:32:57;;;;;;;;;1.00;1.00;;;;;4.60;67.67;102907.63;4980483;28;11463;-67
2023/01/27 09:35:25;;;;;;;;;0.00;0.00;;;;;4.60;68.57;102904.97;4990393;28;11628;-66
2023/01/27 09:37:57;;;;;;;;;1.00;1.00;;;;;4.54;68.35;102900.03;4982769;28;11230;-66
2023/01/27 09:40:38;;;;;;;;;1.00;1.00;;;;;4.51;69.25;102895.78;4991071;28;11204;-66
2023/01/27 09:43:27;;;;;;;;;1.75;0.75;;;;;4.60;69.00;102899.63;4977481;28;11482;-67
2023/01/27 09:46:33;;;;;;;;;1.50;1.50;;;;;4.61;68.89;102912.00;4988297;28;11488;-67
2023/01/27 09:49:14;;;;;;;;;1.50;1.00;;;;;4.58;68.58;102906.91;4979843;28;11532;-67
2023/01/27 09:52:00;;;;;;;;;1.50;1.50;;;;;4.59;68.88;102900.59;5010500;28;11443;-67
2023/01/27 09:54:36;;;;;;;;;1.00;1.00;;;;;4.62;69.42;102906.56;5002220;28;11214;-67
2023/01/27 09:57:23;;;;;;;;;1.25;1.25;;;;;4.55;68.92;102896.44;4990504;28;11501;-67
2023/01/27 10:00:19;;;;;;;;;0.75;0.75;;;;;4.57;69.14;102906.00;4988372;28;11200;-67
2023/01/27 10:03:04;;;;;;;;;0.00;0.00;;;;;4.64;69.69;102901.13;4989645;28;11396;-67
2023/01/27 10:05:37;;;;;;;;;1.00;1.00;;;;;4.67;68.93;102904.44;4998094;28;11220;-66
2023/01/27 10:08:09;;;;;;;;;1.00;1.00;;;;;4.72;69.02;102909.47;4990821;28;11247;-67
2023/01/27 10:10:51;;;;;;;;;1.00;1.00;;;;;4.79;69.74;102900.06;4991140;28;11186;-67
2023/01/27 10:13:30;;;;;;;;;2.00;1.00;;;;;4.82;69.23;102915.88;4985433;28;11241;-66
2023/01/27 10:16:27;;;;;;;;;0.00;0.00;;;;;4.85;68.51;102906.78;4979142;28;12188;-67
2023/01/27 10:19:18;;;;;;;;;1.00;1.00;;;;;4.82;68.44;102912.34;4986684;28;11181;-67
2023/01/27 10:21:52;;;;;;;;;1.00;0.00;;;;;4.90;68.66;102902.88;5010239;28;12033;-67
2023/01/27 10:24:39;;;;;;;;;0.00;0.00;;;;;5.10;69.15;102908.59;5003032;28;11093;-66
2023/01/27 10:27:20;;;;;;;;;0.50;0.50;;;;;5.33;68.98;102910.50;4991983;28;11039;-66
2023/01/27 10:30:13;;;;;;;;;1.00;0.00;;;;;5.37;66.58;102914.66;4986963;28;11202;-67
2023/01/27 10:32:44;;;;;;;;;1.00;0.00;;;;;5.35;66.29;102905.94;4994379;28;11074;-67
2023/01/27 10:35:18;;;;;;;;;0.00;0.00;;;;;5.34;67.23;102904.19;5007996;28;11037;-66
2023/01/27 10:37:57;;;;;;;;;0.00;0.00;;;;;5.35;66.50;102910.41;5013793;28;11205;-67
2023/01/27 10:40:39;;;;;;;;;0.25;0.25;;;;;5.33;67.49;102902.50;4998025;28;11029;-67
2023/01/27 10:43:26;;;;;;;;;0.00;0.00;;;;;5.38;67.18;102904.84;4992022;28;11803;-66
2023/01/27 10:46:01;;;;;;;;;0.25;0.25;;;;;5.37;67.32;102909.31;4997777;28;11902;-67
2023/01/27 10:48:54;;;;;;;;;0.00;0.00;;;;;5.30;67.44;102909.88;4994040;28;11045;-66
2023/01/27 10:51:34;;;;;;;;;0.50;0.50;;;;;5.27;66.91;102902.94;4992640;28;10960;-66
2023/01/27 10:54:09;;;;;;;;;0.25;0.25;;;;;5.31;66.91;102903.59;4998218;28;11002;-67
2023/01/27 10:56:49;;;;;;;;;0.75;0.75;;;;;5.28;67.11;102901.97;4999162;28;11235;-67
2023/01/27 10:59:25;;;;;;;;;2.00;0.00;;;;;5.34;67.54;102898.00;4987348;28;11060;-67
2023/01/27 11:01:58;;;;;;;;;0.00;0.00;;;;;5.45;67.42;102892.75;4990452;28;11048;-67
2023/01/27 11:04:36;;;;;;;;;0.00;0.00;;;;;5.51;67.14;102900.34;4993244;28;11124;-67
2023/01/27 11:07:05;;;;;;;;;0.50;0.50;;;;;5.53;66.83;102892.22;4974138;28;11171;-67
2023/01/27 11:09:38;;;;;;;;;0.00;0.00;;;;;5.49;66.57;102888.06;4995860;28;11059;-67
2023/01/27 11:12:14;;;;;;;;;0.00;0.00;;;;;5.52;66.94;102895.84;4993137;28;10998;-67
2023/01/27 11:14:49;;;;;;;;;0.00;0.00;;;;;5.50;66.96;102897.75;5003112;28;11705;-67
2023/01/27 11:17:35;;;;;;;;;0.00;0.00;;;;;5.46;66.70;102892.63;4998097;28;11152;-66
2023/01/27 11:20:12;;;;;;;;;0.75;0.75;;;;;5.40;66.61;102905.59;4986912;28;10889;-66
2023/01/27 11:23:08;;;;;;;;;0.00;0.00;;;;;5.38;66.38;102905.69;4992383;28;11063;-67
2023/01/27 11:25:55;;;;;;;;;0.00;0.00;;;;;5.37;66.63;102900.47;4970669;28;11151;-66
2023/01/27 11:28:28;;;;;;;;;0.00;0.00;;;;;5.35;65.78;102895.25;4993446;28;11726;-67
2023/01/27 11:31:20;;;;;;;;;0.00;0.00;;;;;5.38;65.83;102900.34;4979909;28;11261;-67
2023/01/27 11:33:53;;;;;;;;;0.00;0.00;;;;;5.36;66.57;102909.44;4994358;28;10974;-67
2023/01/27 11:36:20;;;;;;;;;0.00;0.00;;;;;5.28;66.04;102901.97;5011722;28;10951;-67
2023/01/27 11:38:46;;;;;;;;;1.00;1.00;;;;;5.32;66.66;102898.13;5009797;28;11644;-66
2023/01/27 11:41:13;;;;;;;;;0.00;0.00;;;;;5.32;66.61;102899.94;4992608;28;11129;-67
2023/01/27 11:43:40;;;;;;;;;0.25;0.00;;;;;5.34;67.30;102904.19;4993969;28;10972;-67
2023/01/27 11:46:13;;;;;;;;;0.00;0.00;;;;;5.38;67.13;102899.50;5006788;28;11079;-67
2023/01/27 11:48:50;;;;;;;;;1.00;0.00;;;;;5.36;66.78;102890.75;4993572;28;11003;-66
2023/01/27 11:51:20;;;;;;;;;0.75;0.75;;;;;5.38;67.62;102894.16;5011342;28;11119;-66
2023/01/27 11:54:03;;;;;;;;;1.00;0.00;;;;;5.40;67.82;102889.56;5009899;28;11143;-69
2023/01/27 11:56:33;;;;;;;;;0.00;0.00;;;;;5.37;67.91;102893.31;4992246;28;11036;-67
2023/01/27 11:59:12;;;;;;;;;0.00;0.00;;;;;5.33;67.30;102882.94;4996923;28;10972;-67
2023/01/27 12:01:55;;;;;;;;;0.00;0.00;;;;;5.29;68.64;102879.66;5012328;28;11033;-68
2023/01/27 12:04:47;;;;;;;;;0.25;0.25;;;;;5.18;67.28;102885.75;4991218;28;11038;-68
2023/01/27 12:07:34;;;;;;;;;2.25;0.00;;;;;5.10;68.38;102873.91;4992813;28;10963;-67
2023/01/27 12:10:00;;;;;;;;;0.00;0.00;;;;;5.12;68.62;102878.19;5003929;28;11046;-66
2023/01/27 12:12:27;;;;;;;;;0.00;0.00;;;;;5.13;68.87;102860.34;5009932;28;10969;-66
2023/01/27 12:14:56;;;;;;;;;0.25;0.25;;;;;5.08;68.42;102865.16;4996343;28;11060;-67
2023/01/27 12:17:29;;;;;;;;;0.50;0.50;;;;;5.11;69.33;102860.47;4992297;28;11073;-69